Time;durP1;ratioP1;P1;durP2;ratioP2;P2;SDS_P1;SDS_P2;PMS_P1;PMS_P2;Temp;Humidity;BMP_temperature;BMP_pressure;BME280_temperature;BME280_humidity;BME280_pressure;Samples;Min_cycle;Max_cycle;Signal;HPM_P1;HPM_P2
2022/11/18 00:00:46;;;;;;;14.80;7.57;;;;;;;;;;5016225;28;20198;-68
2022/11/18 00:03:12;;;;;;;15.10;7.00;;;;;;;;;;5021162;28;20182;-68
2022/11/18 00:05:37;;;;;;;13.00;6.50;;;;;;;;;;5027026;28;20191;-68
2022/11/18 00:08:02;;;;;;;18.83;7.43;;;;;;;;;;5017806;28;20171;-68
2022/11/18 00:10:28;;;;;;;15.77;6.80;;;;;;;;;;5021452;28;20265;-67
2022/11/18 00:15:37;;;;;;;16.07;7.03;;;;;;;;;;5016784;28;20291;-67
2022/11/18 00:18:02;;;;;;;19.10;7.57;;;;;;;;;;5019066;28;20222;-68
2022/11/18 00:20:28;;;;;;;12.63;6.60;;;;;;;;;;5023699;28;20628;-68
2022/11/18 00:22:53;;;;;;;21.57;7.13;;;;;;;;;;5014155;28;20367;-68
2022/11/18 00:25:18;;;;;;;19.13;7.60;;;;;;;;;;5016982;28;20166;-68
2022/11/18 00:27:44;;;;;;;15.13;6.73;;;;;;;;;;5020947;28;20186;-67
2022/11/18 00:30:10;;;;;;;11.77;6.47;;;;;;;;;;5022934;28;20537;-67
2022/11/18 00:32:35;;;;;;;18.60;7.87;;;;;;;;;;5017197;28;20259;-67
2022/11/18 00:35:00;;;;;;;16.60;7.90;;;;;;;;;;5027032;28;20246;-67
2022/11/18 00:37:26;;;;;;;18.53;7.17;;;;;;;;;;5028916;28;20378;-68
2022/11/18 00:39:51;;;;;;;13.73;6.73;;;;;;;;;;5019182;28;20186;-67
2022/11/18 00:45:00;;;;;;;14.43;6.87;;;;;;;;;;5017326;28;20662;-68
2022/11/18 00:47:26;;;;;;;12.70;6.70;;;;;;;;;;5023436;28;20186;-67
2022/11/18 00:49:51;;;;;;;17.90;7.40;;;;;;;;;;5015965;28;20617;-67
2022/11/18 00:52:16;;;;;;;18.77;7.10;;;;;;;;;;5022304;28;20633;-67
2022/11/18 00:54:41;;;;;;;18.87;7.20;;;;;;;;;;5025641;28;20204;-67
2022/11/18 00:57:07;;;;;;;27.67;8.07;;;;;;;;;;5019921;28;20329;-67
2022/11/18 00:59:32;;;;;;;17.83;7.97;;;;;;;;;;5012748;28;20274;-67
2022/11/18 01:01:58;;;;;;;13.70;7.27;;;;;;;;;;5017503;28;20257;-68
2022/11/18 01:04:23;;;;;;;15.10;7.90;;;;;;;;;;5021329;28;20189;-68
2022/11/18 01:06:48;;;;;;;19.80;7.80;;;;;;;;;;5015022;28;20174;-68
2022/11/18 01:09:13;;;;;;;16.10;8.17;;;;;;;;;;5014799;28;20190;-68
2022/11/18 01:14:24;;;;;;;15.40;7.67;;;;;;;;;;5013787;28;20192;-67
2022/11/18 01:16:55;;;;;;;17.07;7.67;;;;;;;;;;5017352;28;20186;-67
2022/11/18 01:19:21;;;;;;;19.00;6.63;;;;;;;;;;5017945;28;20187;-67
2022/11/18 01:21:46;;;;;;;15.20;7.05;;;;;;;;;;5023252;28;20664;-68
2022/11/18 01:24:12;;;;;;;17.10;6.80;;;;;;;;;;5021359;28;20217;-68
2022/11/18 01:26:37;;;;;;;16.33;6.77;;;;;;;;;;5014963;28;20197;-68
2022/11/18 01:29:02;;;;;;;13.83;6.50;;;;;;;;;;5018654;28;20178;-68
2022/11/18 01:31:28;;;;;;;17.90;6.73;;;;;;;;;;5022947;28;20204;-68
2022/11/18 01:33:53;;;;;;;18.60;6.50;;;;;;;;;;5023481;28;20465;-68
2022/11/18 01:36:21;;;;;;;15.83;6.07;;;;;;;;;;5021419;28;20320;-68
2022/11/18 01:38:47;;;;;;;14.50;6.60;;;;;;;;;;5022469;28;20202;-68
2022/11/18 01:41:13;;;;;;;13.40;6.23;;;;;;;;;;5010927;28;20566;-67
2022/11/18 01:43:57;;;;;;;14.30;6.37;;;;;;;;;;5014368;28;20642;-67
2022/11/18 01:46:25;;;;;;;13.37;6.50;;;;;;;;;;5011651;28;20174;-67
2022/11/18 01:48:55;;;;;;;13.23;5.63;;;;;;;;;;5019364;28;20257;-68
2022/11/18 01:51:26;;;;;;;14.17;5.30;;;;;;;;;;5016414;28;20182;-67
2022/11/18 01:54:01;;;;;;;13.30;6.07;;;;;;;;;;5018790;28;20364;-67
2022/11/18 01:56:38;;;;;;;13.40;5.77;;;;;;;;;;5023185;28;20186;-67
2022/11/18 01:59:10;;;;;;;14.03;5.90;;;;;;;;;;5022689;28;20204;-67
2022/11/18 02:01:36;;;;;;;12.87;5.80;;;;;;;;;;5025805;28;20827;-68
2022/11/18 02:04:02;;;;;;;13.93;5.77;;;;;;;;;;5025525;28;20192;-68
2022/11/18 02:06:27;;;;;;;14.30;6.40;;;;;;;;;;5019962;28;20597;-68
2022/11/18 02:08:53;;;;;;;11.43;5.43;;;;;;;;;;5021564;28;20213;-68
2022/11/18 02:14:05;;;;;;;14.63;6.00;;;;;;;;;;5025821;28;20610;-68
2022/11/18 02:16:53;;;;;;;12.83;6.40;;;;;;;;;;5020375;28;22006;-67
2022/11/18 02:19:50;;;;;;;16.17;6.80;;;;;;;;;;5022110;28;20194;-67
2022/11/18 02:22:22;;;;;;;16.53;6.80;;;;;;;;;;5025895;28;20182;-67
2022/11/18 02:25:02;;;;;;;17.87;7.90;;;;;;;;;;5027002;28;20601;-67
2022/11/18 02:28:17;;;;;;;18.00;7.30;;;;;;;;;;5022099;28;20178;-68
2022/11/18 02:30:52;;;;;;;14.80;7.20;;;;;;;;;;5022659;28;20191;-68
2022/11/18 02:33:32;;;;;;;17.53;8.00;;;;;;;;;;5019620;28;20229;-68
2022/11/18 02:36:11;;;;;;;22.13;8.73;;;;;;;;;;5028839;28;20263;-68
2022/11/18 02:38:42;;;;;;;14.97;8.80;;;;;;;;;;5020825;28;20209;-68
2022/11/18 02:41:14;;;;;;;20.37;8.73;;;;;;;;;;5026467;28;20275;-68
2022/11/18 02:43:46;;;;;;;20.77;10.13;;;;;;;;;;5017122;28;20187;-67
2022/11/18 02:46:16;;;;;;;19.20;10.63;;;;;;;;;;5029431;28;20214;-67
2022/11/18 02:48:48;;;;;;;18.80;10.83;;;;;;;;;;5030298;28;20594;-67
2022/11/18 02:51:17;;;;;;;18.03;11.37;;;;;;;;;;5021255;28;20639;-67
2022/11/18 02:53:45;;;;;;;22.10;11.17;;;;;;;;;;5026962;28;20196;-67
2022/11/18 02:56:12;;;;;;;21.50;12.07;;;;;;;;;;5023182;28;20190;-67
2022/11/18 02:58:37;;;;;;;25.87;12.77;;;;;;;;;;5029550;28;20209;-67
2022/11/18 03:01:02;;;;;;;24.37;13.33;;;;;;;;;;5015632;28;20186;-68
2022/11/18 03:03:30;;;;;;;24.97;13.40;;;;;;;;;;5029099;28;20190;-67
2022/11/18 03:06:26;;;;;;;26.20;14.33;;;;;;;;;;5023803;28;20193;-67
2022/11/18 03:09:04;;;;;;;25.90;14.20;;;;;;;;;;5022587;28;20287;-68
2022/11/18 03:11:35;;;;;;;22.60;14.57;;;;;;;;;;5014971;28;20190;-67
2022/11/18 03:14:17;;;;;;;28.90;14.57;;;;;;;;;;5030061;28;20178;-68
2022/11/18 03:17:01;;;;;;;28.63;16.10;;;;;;;;;;5025177;28;20194;-67
2022/11/18 03:19:39;;;;;;;27.10;15.33;;;;;;;;;;5018884;28;20190;-67
2022/11/18 03:22:09;;;;;;;27.60;15.70;;;;;;;;;;5026320;28;20213;-67
2022/11/18 03:24:39;;;;;;;28.80;16.70;;;;;;;;;;5022550;28;20220;-68
2022/11/18 03:27:29;;;;;;;30.80;17.10;;;;;;;;;;5019907;28;20278;-68
2022/11/18 03:30:02;;;;;;;35.33;17.27;;;;;;;;;;5019747;28;20682;-68
2022/11/18 03:32:31;;;;;;;29.40;16.87;;;;;;;;;;5020669;28;20202;-67
2022/11/18 03:35:08;;;;;;;33.60;17.97;;;;;;;;;;5018240;28;20245;-68
2022/11/18 03:37:35;;;;;;;32.07;17.53;;;;;;;;;;5018343;28;20258;-67
2022/11/18 03:40:11;;;;;;;32.23;17.77;;;;;;;;;;5018216;28;20608;-67
2022/11/18 03:42:42;;;;;;;28.23;17.23;;;;;;;;;;5026030;28;20213;-67
2022/11/18 03:45:18;;;;;;;32.10;17.93;;;;;;;;;;5024718;28;20200;-67
2022/11/18 03:47:51;;;;;;;29.17;17.50;;;;;;;;;;5020969;28;20688;-67
2022/11/18 03:50:34;;;;;;;32.20;17.43;;;;;;;;;;5029520;28;20185;-67
2022/11/18 03:53:01;;;;;;;30.37;17.20;;;;;;;;;;5018407;28;20210;-68
2022/11/18 03:55:32;;;;;;;28.70;17.47;;;;;;;;;;5020138;28;20647;-68
2022/11/18 03:58:14;;;;;;;30.27;18.27;;;;;;;;;;5028013;28;20220;-68
2022/11/18 04:00:43;;;;;;;27.60;17.33;;;;;;;;;;5029152;28;20194;-67
2022/11/18 04:03:09;;;;;;;29.63;18.57;;;;;;;;;;5018011;28;20187;-67
2022/11/18 04:05:39;;;;;;;27.27;18.00;;;;;;;;;;5013814;28;20195;-67
2022/11/18 04:08:26;;;;;;;27.80;19.00;;;;;;;;;;5019960;28;20186;-68
2022/11/18 04:11:02;;;;;;;28.70;19.37;;;;;;;;;;5011202;28;20222;-68
2022/11/18 04:13:31;;;;;;;31.47;20.40;;;;;;;;;;5027388;28;20182;-67
2022/11/18 04:15:56;;;;;;;34.13;20.00;;;;;;;;;;5023049;28;20186;-67
2022/11/18 04:18:22;;;;;;;35.73;20.57;;;;;;;;;;5029703;28;20194;-67
2022/11/18 04:20:47;;;;;;;34.67;21.93;;;;;;;;;;5029140;28;20217;-67
2022/11/18 04:23:12;;;;;;;37.50;22.10;;;;;;;;;;5028959;28;20285;-68
2022/11/18 04:25:38;;;;;;;37.97;22.60;;;;;;;;;;5011857;28;20197;-67
2022/11/18 04:28:04;;;;;;;37.40;22.60;;;;;;;;;;5013544;28;20348;-67
2022/11/18 04:30:29;;;;;;;35.67;23.13;;;;;;;;;;5014672;28;20261;-67
2022/11/18 04:32:55;;;;;;;39.03;24.37;;;;;;;;;;5023112;28;20237;-67
2022/11/18 04:35:20;;;;;;;36.37;23.33;;;;;;;;;;5022924;28;20571;-68
2022/11/18 04:37:45;;;;;;;41.23;24.97;;;;;;;;;;5025056;28;20206;-68
2022/11/18 04:40:11;;;;;;;40.73;25.43;;;;;;;;;;5014448;28;20182;-68
2022/11/18 04:42:36;;;;;;;44.90;25.20;;;;;;;;;;5026280;28;20251;-68
2022/11/18 04:45:03;;;;;;;45.80;25.80;;;;;;;;;;5021553;28;20186;-68
2022/11/18 04:47:28;;;;;;;41.07;24.43;;;;;;;;;;5012978;28;20214;-68
2022/11/18 04:49:54;;;;;;;45.43;26.00;;;;;;;;;;5019404;28;20639;-68
2022/11/18 04:52:19;;;;;;;43.77;25.83;;;;;;;;;;5018074;28;20174;-68
2022/11/18 04:54:45;;;;;;;49.63;25.30;;;;;;;;;;5018912;28;20194;-68
2022/11/18 04:57:11;;;;;;;45.00;25.90;;;;;;;;;;5020565;28;20210;-68
2022/11/18 04:59:36;;;;;;;47.33;25.83;;;;;;;;;;5026516;28;20184;-68
2022/11/18 05:02:02;;;;;;;46.60;26.47;;;;;;;;;;5023865;28;20200;-68
2022/11/18 05:04:30;;;;;;;44.05;25.35;;;;;;;;;;5011768;28;20615;-68
2022/11/18 05:06:56;;;;;;;44.37;25.73;;;;;;;;;;5013403;28;20184;-68
2022/11/18 05:09:22;;;;;;;42.78;24.98;;;;;;;;;;5022492;28;20216;-68
2022/11/18 05:14:31;;;;;;;47.92;26.30;;;;;;;;;;5010772;28;20193;-68
2022/11/18 05:16:59;;;;;;;50.00;26.43;;;;;;;;;;5017419;28;20183;-68
2022/11/18 05:19:24;;;;;;;52.55;25.90;;;;;;;;;;5016105;28;20197;-68
2022/11/18 05:21:50;;;;;;;50.15;26.52;;;;;;;;;;5017763;28;20270;-68
2022/11/18 05:24:15;;;;;;;46.28;25.42;;;;;;;;;;5018195;28;20204;-68
2022/11/18 05:26:40;;;;;;;53.23;26.43;;;;;;;;;;5010109;28;20186;-68
2022/11/18 05:29:06;;;;;;;51.10;27.30;;;;;;;;;;5019871;28;20190;-68
2022/11/18 05:31:31;;;;;;;54.90;28.23;;;;;;;;;;5015390;28;20187;-68
2022/11/18 05:33:57;;;;;;;55.90;27.10;;;;;;;;;;5017522;28;20190;-68
2022/11/18 05:36:22;;;;;;;48.13;26.20;;;;;;;;;;5012778;28;20523;-68
2022/11/18 05:38:48;;;;;;;46.83;26.13;;;;;;;;;;5018634;28;20198;-68
2022/11/18 05:43:09;;;;;;;43.60;25.33;;;;;;;;;;5019290;28;20648;-68
2022/11/18 05:43:59;;;;;;;42.40;23.83;;;;;;;;;;5020025;28;20302;-68
2022/11/18 05:46:25;;;;;;;45.05;24.45;;;;;;;;;;5016080;28;20640;-68
2022/11/18 05:48:50;;;;;;;44.95;24.98;;;;;;;;;;5027957;28;20575;-68
2022/11/18 05:51:16;;;;;;;44.25;24.77;;;;;;;;;;5026467;28;20264;-68
2022/11/18 05:53:41;;;;;;;46.53;24.40;;;;;;;;;;5015950;28;20270;-68
2022/11/18 05:56:17;;;;;;;43.50;24.23;;;;;;;;;;5013143;28;20210;-68
2022/11/18 05:58:43;;;;;;;40.50;24.00;;;;;;;;;;5017647;28;20302;-68
2022/11/18 06:01:10;;;;;;;43.47;24.23;;;;;;;;;;5026584;28;20268;-69
2022/11/18 06:03:39;;;;;;;45.42;24.48;;;;;;;;;;5026529;28;20263;-68
2022/11/18 06:06:06;;;;;;;44.58;23.95;;;;;;;;;;5028127;28;20312;-68
2022/11/18 06:08:37;;;;;;;42.83;23.65;;;;;;;;;;5022031;28;20623;-69
2022/11/18 06:11:05;;;;;;;45.35;23.90;;;;;;;;;;5018981;28;20244;-69
2022/11/18 06:13:36;;;;;;;44.20;24.95;;;;;;;;;;5013001;28;20190;-68
2022/11/18 06:16:02;;;;;;;39.88;22.77;;;;;;;;;;5022925;28;20178;-68
2022/11/18 06:18:31;;;;;;;47.20;24.55;;;;;;;;;;5027125;28;20197;-68
2022/11/18 06:21:03;;;;;;;37.92;22.23;;;;;;;;;;5019913;28;20186;-68
2022/11/18 06:23:36;;;;;;;43.60;23.92;;;;;;;;;;5019939;28;20182;-68
2022/11/18 06:26:02;;;;;;;52.17;29.95;;;;;;;;;;5008515;28;21134;-68
2022/11/18 06:28:28;;;;;;;42.67;24.97;;;;;;;;;;5020290;28;20204;-68
2022/11/18 06:30:54;;;;;;;44.03;24.97;;;;;;;;;;5013441;28;20717;-68
2022/11/18 06:33:19;;;;;;;42.07;24.33;;;;;;;;;;5015112;28;20198;-68
2022/11/18 06:35:44;;;;;;;56.43;25.60;;;;;;;;;;5017271;28;20221;-68
2022/11/18 06:38:10;;;;;;;50.50;25.50;;;;;;;;;;5006914;28;20398;-69
2022/11/18 06:40:36;;;;;;;46.93;24.83;;;;;;;;;;5015145;28;20645;-68
2022/11/18 06:48:36;;;;;;;51.83;24.80;;;;;;;;;;5006359;28;20595;-67
2022/11/18 06:51:06;;;;;;;48.70;25.53;;;;;;;;;;5015779;28;20198;-68
2022/11/18 06:53:33;;;;;;;46.10;25.53;;;;;;;;;;5014892;28;20190;-67
2022/11/18 06:56:09;;;;;;;51.97;25.67;;;;;;;;;;5021465;28;20186;-67
2022/11/18 06:58:35;;;;;;;46.17;23.87;;;;;;;;;;5018587;28;20286;-67
2022/11/18 07:01:11;;;;;;;45.30;23.60;;;;;;;;;;5013763;28;20541;-67
2022/11/18 07:03:36;;;;;;;51.93;25.70;;;;;;;;;;5015477;28;20198;-67
2022/11/18 07:06:01;;;;;;;49.83;24.70;;;;;;;;;;5018398;28;20265;-67
2022/11/18 07:08:27;;;;;;;54.97;25.57;;;;;;;;;;5020733;28;20623;-67
2022/11/18 07:10:52;;;;;;;52.73;27.07;;;;;;;;;;5018244;28;20701;-67
2022/11/18 07:13:18;;;;;;;55.67;27.20;;;;;;;;;;5026466;28;20632;-67
2022/11/18 07:15:43;;;;;;;51.13;25.67;;;;;;;;;;5023643;28;20190;-67
2022/11/18 07:18:08;;;;;;;51.20;26.27;;;;;;;;;;5018781;28;20199;-68
2022/11/18 07:20:34;;;;;;;55.97;26.07;;;;;;;;;;5015132;28;20278;-68
2022/11/18 07:22:59;;;;;;;52.77;27.00;;;;;;;;;;5017300;28;20175;-68
2022/11/18 07:25:24;;;;;;;52.77;26.17;;;;;;;;;;5025431;28;20390;-67
2022/11/18 07:27:50;;;;;;;53.87;26.47;;;;;;;;;;5025406;28;20200;-67
2022/11/18 07:30:15;;;;;;;54.17;25.97;;;;;;;;;;5027649;28;20692;-67
2022/11/18 07:32:41;;;;;;;51.90;26.67;;;;;;;;;;5030580;28;20212;-67
2022/11/18 07:35:06;;;;;;;51.80;27.00;;;;;;;;;;5017252;28;20223;-68
2022/11/18 07:37:31;;;;;;;50.33;25.10;;;;;;;;;;5020599;28;20285;-67
2022/11/18 07:39:58;;;;;;;51.97;26.27;;;;;;;;;;5015201;28;20182;-67
2022/11/18 07:42:24;;;;;;;51.80;26.30;;;;;;;;;;5013953;28;20178;-67
2022/11/18 07:44:49;;;;;;;53.07;27.53;;;;;;;;;;5020242;28;20232;-69
2022/11/18 07:47:15;;;;;;;47.97;25.07;;;;;;;;;;5030481;28;20167;-68
2022/11/18 07:49:40;;;;;;;54.07;25.90;;;;;;;;;;5023752;28;20194;-68
2022/11/18 07:52:05;;;;;;;49.33;26.43;;;;;;;;;;5029075;28;20205;-68
2022/11/18 07:54:31;;;;;;;56.50;25.03;;;;;;;;;;5012954;28;20187;-68
2022/11/18 07:56:56;;;;;;;52.23;25.30;;;;;;;;;;5023103;28;20187;-68
2022/11/18 07:59:21;;;;;;;54.57;26.10;;;;;;;;;;5029913;28;20185;-68
2022/11/18 08:01:47;;;;;;;49.90;24.83;;;;;;;;;;5027980;28;20415;-68
2022/11/18 08:04:12;;;;;;;48.03;24.90;;;;;;;;;;5016737;28;20175;-68
2022/11/18 08:06:38;;;;;;;44.43;24.77;;;;;;;;;;5024666;28;20760;-68
2022/11/18 08:09:05;;;;;;;45.47;24.53;;;;;;;;;;5028847;28;20170;-68
2022/11/18 08:11:30;;;;;;;44.93;24.27;;;;;;;;;;5017335;28;20181;-68
2022/11/18 08:13:56;;;;;;;48.77;25.03;;;;;;;;;;5015391;28;20174;-68
2022/11/18 08:16:24;;;;;;;48.70;25.83;;;;;;;;;;5027950;28;20247;-68
2022/11/18 08:18:49;;;;;;;49.70;25.37;;;;;;;;;;5014507;28;22240;-68
2022/11/18 08:21:16;;;;;;;47.10;25.17;;;;;;;;;;5027299;28;20189;-68
2022/11/18 08:23:42;;;;;;;50.50;25.43;;;;;;;;;;5016987;28;20196;-68
2022/11/18 08:26:10;;;;;;;49.97;25.27;;;;;;;;;;5020255;28;20198;-68
2022/11/18 08:28:36;;;;;;;48.07;24.33;;;;;;;;;;5016114;28;20178;-68
2022/11/18 08:31:15;;;;;;;43.78;24.60;;;;;;;;;;5019863;28;20175;-69
2022/11/18 08:33:41;;;;;;;49.63;25.17;;;;;;;;;;5017496;28;20198;-68
2022/11/18 08:36:27;;;;;;;46.08;23.88;;;;;;;;;;5015667;28;20291;-68
2022/11/18 08:38:54;;;;;;;47.37;25.10;;;;;;;;;;5022702;28;20202;-69
2022/11/18 08:41:38;;;;;;;46.73;24.13;;;;;;;;;;5014287;28;20548;-68
2022/11/18 08:44:05;;;;;;;48.03;25.33;;;;;;;;;;5025868;28;20632;-68
2022/11/18 08:46:31;;;;;;;45.80;24.07;;;;;;;;;;5027998;28;20499;-68
2022/11/18 08:48:57;;;;;;;47.60;23.73;;;;;;;;;;5023039;28;20607;-68
2022/11/18 08:51:23;;;;;;;42.70;23.17;;;;;;;;;;5010182;28;20701;-70
2022/11/18 08:53:48;;;;;;;45.57;23.83;;;;;;;;;;5026364;28;20210;-70
2022/11/18 08:56:16;;;;;;;44.50;23.57;;;;;;;;;;5022560;28;20224;-69
2022/11/18 08:58:42;;;;;;;41.33;22.83;;;;;;;;;;5024267;28;20212;-69
2022/11/18 09:01:08;;;;;;;50.83;24.07;;;;;;;;;;5013379;28;20190;-69
2022/11/18 09:03:33;;;;;;;41.53;23.67;;;;;;;;;;5014508;28;20183;-69
2022/11/18 09:06:13;;;;;;;45.30;23.47;;;;;;;;;;5010418;28;20646;-69
2022/11/18 09:08:39;;;;;;;42.13;22.60;;;;;;;;;;5028296;28;20174;-69
2022/11/18 09:11:13;;;;;;;46.57;23.07;;;;;;;;;;5026466;28;20307;-70
2022/11/18 09:13:39;;;;;;;45.77;24.47;;;;;;;;;;5018815;28;20182;-69
2022/11/18 09:16:05;;;;;;;42.70;23.50;;;;;;;;;;5009291;28;20194;-69
2022/11/18 09:18:31;;;;;;;43.53;22.88;;;;;;;;;;5015426;28;20205;-69
2022/11/18 09:21:02;;;;;;;41.00;22.27;;;;;;;;;;5022795;28;20186;-69
2022/11/18 09:23:28;;;;;;;41.63;21.88;;;;;;;;;;5022998;28;20185;-69
2022/11/18 09:25:58;;;;;;;43.67;22.15;;;;;;;;;;5009483;28;20550;-69
2022/11/18 09:28:24;;;;;;;35.05;21.65;;;;;;;;;;5022017;28;20225;-69
2022/11/18 09:30:49;;;;;;;39.65;21.33;;;;;;;;;;5019890;28;20181;-69
2022/11/18 09:33:15;;;;;;;35.50;20.27;;;;;;;;;;5028126;28;20208;-69
2022/11/18 09:35:42;;;;;;;33.73;19.83;;;;;;;;;;5019045;28;20226;-69
2022/11/18 09:38:07;;;;;;;34.00;20.03;;;;;;;;;;5024625;28;20279;-69
2022/11/18 09:40:43;;;;;;;32.05;19.23;;;;;;;;;;5028599;28;20623;-68
2022/11/18 09:43:27;;;;;;;31.80;19.30;;;;;;;;;;5027608;28;20182;-68
2022/11/18 09:45:58;;;;;;;30.57;18.43;;;;;;;;;;5011153;28;20179;-68
2022/11/18 09:49:11;;;;;;;28.33;17.30;;;;;;;;;;5016591;28;20203;-68
2022/11/18 09:51:11;;;;;;;25.63;17.00;;;;;;;;;;5015193;28;20194;-68
2022/11/18 09:53:41;;;;;;;30.17;17.53;;;;;;;;;;5013788;28;20182;-68
2022/11/18 09:56:15;;;;;;;27.45;16.90;;;;;;;;;;5018005;28;20182;-68
2022/11/18 09:58:41;;;;;;;25.30;15.90;;;;;;;;;;5011598;28;20676;-68
2022/11/18 10:01:16;;;;;;;27.80;16.38;;;;;;;;;;5014217;28;20181;-68
2022/11/18 10:03:41;;;;;;;28.07;16.70;;;;;;;;;;5020782;28;20599;-68
2022/11/18 10:06:33;;;;;;;25.08;16.45;;;;;;;;;;5025207;28;20284;-68
2022/11/18 10:09:10;;;;;;;30.90;17.73;;;;;;;;;;5017255;28;20182;-68
2022/11/18 10:11:54;;;;;;;25.80;16.52;;;;;;;;;;5027026;28;20178;-69
2022/11/18 10:14:38;;;;;;;29.08;16.80;;;;;;;;;;5020183;28;20193;-68
2022/11/18 10:17:19;;;;;;;25.65;17.10;;;;;;;;;;5018810;28;20186;-68
2022/11/18 10:19:56;;;;;;;29.55;16.83;;;;;;;;;;5025330;28;20190;-68
2022/11/18 10:22:51;;;;;;;28.08;16.95;;;;;;;;;;5012611;28;20193;-68
2022/11/18 10:25:17;;;;;;;29.27;16.92;;;;;;;;;;5004655;28;20199;-68
2022/11/18 10:27:46;;;;;;;26.45;16.80;;;;;;;;;;5016822;28;20851;-68
2022/11/18 10:30:14;;;;;;;29.52;17.40;;;;;;;;;;5016842;28;20178;-68
2022/11/18 10:32:53;;;;;;;28.35;16.95;;;;;;;;;;5013463;28;20245;-68
2022/11/18 10:35:29;;;;;;;25.30;16.08;;;;;;;;;;5010110;28;20733;-68
2022/11/18 10:38:17;;;;;;;27.13;16.48;;;;;;;;;;5016870;28;20197;-68
2022/11/18 10:40:56;;;;;;;25.33;15.77;;;;;;;;;;5016280;28;20197;-68
2022/11/18 10:43:43;;;;;;;23.92;15.90;;;;;;;;;;5028353;28;20177;-68
2022/11/18 10:46:27;;;;;;;25.00;15.23;;;;;;;;;;5023390;28;20233;-68
2022/11/18 10:49:07;;;;;;;24.52;15.32;;;;;;;;;;5023431;28;20186;-68
2022/11/18 10:51:34;;;;;;;23.50;15.00;;;;;;;;;;5030017;28;20219;-68
2022/11/18 10:54:20;;;;;;;25.55;16.05;;;;;;;;;;5029047;28;20181;-68
2022/11/18 10:57:13;;;;;;;23.25;15.60;;;;;;;;;;5011581;28;20178;-69
2022/11/18 10:59:54;;;;;;;22.63;14.77;;;;;;;;;;5024106;28;20207;-69
2022/11/18 11:02:31;;;;;;;23.80;15.20;;;;;;;;;;5011652;28;20178;-68
2022/11/18 11:05:00;;;;;;;22.95;15.82;;;;;;;;;;5021258;28;20186;-69
2022/11/18 11:07:33;;;;;;;23.60;14.70;;;;;;;;;;5017602;28;20175;-69
2022/11/18 11:10:04;;;;;;;24.65;15.88;;;;;;;;;;5026289;28;20206;-69
2022/11/18 11:12:46;;;;;;;23.48;15.55;;;;;;;;;;5026864;28;20243;-69
2022/11/18 11:15:17;;;;;;;24.30;15.15;;;;;;;;;;5026104;28;20182;-69
2022/11/18 11:18:40;;;;;;;22.67;14.55;;;;;;;;;;5012635;28;20207;-68
2022/11/18 11:20:38;;;;;;;23.02;14.82;;;;;;;;;;5024136;28;20193;-68
2022/11/18 11:23:09;;;;;;;24.95;15.38;;;;;;;;;;5022545;28;20240;-69
2022/11/18 11:25:40;;;;;;;22.35;15.20;;;;;;;;;;5020630;28;20270;-69
2022/11/18 11:28:16;;;;;;;22.45;15.18;;;;;;;;;;5016110;28;20639;-69
2022/11/18 11:30:58;;;;;;;21.00;14.40;;;;;;;;;;5009791;28;20183;-69
2022/11/18 11:33:46;;;;;;;22.13;14.18;;;;;;;;;;5010708;28;20202;-69
2022/11/18 11:36:45;;;;;;;21.98;13.38;;;;;;;;;;5022504;28;20248;-69
2022/11/18 11:39:35;;;;;;;23.55;15.15;;;;;;;;;;5022761;28;20578;-69
2022/11/18 11:42:18;;;;;;;22.30;14.05;;;;;;;;;;5015391;28;20674;-69
2022/11/18 11:45:00;;;;;;;23.33;14.32;;;;;;;;;;5015457;28;20297;-69
2022/11/18 11:48:03;;;;;;;21.27;14.30;;;;;;;;;;5010953;28;20185;-69
2022/11/18 11:50:54;;;;;;;23.25;14.27;;;;;;;;;;5027400;28;20182;-68
2022/11/18 11:53:22;;;;;;;21.55;13.48;;;;;;;;;;5030736;28;20480;-69
2022/11/18 11:56:25;;;;;;;21.92;14.13;;;;;;;;;;5027374;28;20272;-70
2022/11/18 11:59:17;;;;;;;23.70;15.25;;;;;;;;;;5016314;28;20201;-70
2022/11/18 12:01:57;;;;;;;23.30;15.10;;;;;;;;;;5010478;28;20186;-69
2022/11/18 12:04:42;;;;;;;27.67;15.90;;;;;;;;;;5018985;28;20606;-69
2022/11/18 12:07:15;;;;;;;22.02;15.45;;;;;;;;;;5022019;28;20490;-69
2022/11/18 12:10:03;;;;;;;20.65;14.13;;;;;;;;;;5024894;28;20265;-69
2022/11/18 12:12:45;;;;;;;19.90;14.05;;;;;;;;;;5015902;28;20174;-69
2022/11/18 12:15:17;;;;;;;22.08;15.30;;;;;;;;;;5028577;28;20182;-68
2022/11/18 12:17:57;;;;;;;19.85;14.35;;;;;;;;;;5020862;28;20620;-68
2022/11/18 12:20:52;;;;;;;21.90;14.48;;;;;;;;;;5030683;28;20197;-69
2022/11/18 12:23:21;;;;;;;22.33;14.13;;;;;;;;;;5011134;28;20371;-69
2022/11/18 12:25:46;;;;;;;22.52;15.30;;;;;;;;;;5016976;28;20206;-69
2022/11/18 12:28:28;;;;;;;21.92;15.20;;;;;;;;;;5014519;28;20597;-69
2022/11/18 12:31:29;;;;;;;20.50;15.10;;;;;;;;;;5020064;28;20182;-68
2022/11/18 12:34:01;;;;;;;23.67;14.95;;;;;;;;;;5029177;28;20684;-68
2022/11/18 12:36:31;;;;;;;21.77;15.50;;;;;;;;;;5022964;28;20298;-68
2022/11/18 12:38:58;;;;;;;21.73;14.23;;;;;;;;;;5017730;28;20206;-69
2022/11/18 12:44:28;;;;;;;22.85;15.50;;;;;;;;;;5021629;28;20244;-68
2022/11/18 12:46:56;;;;;;;20.33;14.55;;;;;;;;;;5011427;28;20197;-68
2022/11/18 12:49:21;;;;;;;21.45;12.95;;;;;;;;;;5018475;28;20221;-68
2022/11/18 12:51:48;;;;;;;16.58;12.35;;;;;;;;;;5024563;28;20570;-68
2022/11/18 12:54:52;;;;;;;18.65;12.65;;;;;;;;;;5019113;28;20606;-68
2022/11/18 12:57:27;;;;;;;19.00;13.45;;;;;;;;;;5014675;28;20186;-68
2022/11/18 12:59:53;;;;;;;23.35;14.38;;;;;;;;;;5028721;28;20192;-68
2022/11/18 13:02:27;;;;;;;20.30;13.65;;;;;;;;;;5015287;28;20183;-68
2022/11/18 13:05:18;;;;;;;22.17;13.95;;;;;;;;;;5021665;28;20273;-68
2022/11/18 13:10:33;;;;;;;22.02;14.13;;;;;;;;;;5026182;28;20250;-68
2022/11/18 13:12:59;;;;;;;25.40;15.75;;;;;;;;;;5014156;28;20547;-68
2022/11/18 13:18:15;;;;;;;30.10;15.50;;;;;;;;;;5014499;28;20289;-68
2022/11/18 13:20:42;;;;;;;24.08;14.85;;;;;;;;;;5027562;28;20201;-67
2022/11/18 13:26:13;;;;;;;25.87;14.93;;;;;;;;;;5029335;28;20755;-67
2022/11/18 13:29:03;;;;;;;26.02;15.32;;;;;;;;;;5020332;28;20825;-67
2022/11/18 13:31:57;;;;;;;26.75;15.30;;;;;;;;;;5017240;28;20676;-67
2022/11/18 13:34:25;;;;;;;25.50;15.75;;;;;;;;;;5015932;28;20193;-69
2022/11/18 13:36:52;;;;;;;25.83;14.88;;;;;;;;;;5025196;28;20709;-67
2022/11/18 13:39:22;;;;;;;28.58;15.15;;;;;;;;;;5027558;28;20209;-66
2022/11/18 13:41:58;;;;;;;26.50;15.43;;;;;;;;;;5025466;28;20249;-67
2022/11/18 13:44:26;;;;;;;26.33;15.70;;;;;;;;;;5019614;28;20185;-67
2022/11/18 13:46:57;;;;;;;26.65;15.63;;;;;;;;;;5024450;28;20233;-67
2022/11/18 13:49:52;;;;;;;26.37;16.37;;;;;;;;;;5014323;28;20677;-67
2022/11/18 13:52:27;;;;;;;30.63;16.83;;;;;;;;;;5023957;28;20213;-67
2022/11/18 13:54:55;;;;;;;27.70;14.93;;;;;;;;;;5020007;28;20209;-67
2022/11/18 13:57:24;;;;;;;34.45;15.48;;;;;;;;;;5021764;28;20185;-67
2022/11/18 13:59:52;;;;;;;25.45;14.65;;;;;;;;;;5028183;28;20181;-68
2022/11/18 14:02:18;;;;;;;26.23;14.70;;;;;;;;;;5024942;28;20189;-68
2022/11/18 14:04:55;;;;;;;26.23;13.70;;;;;;;;;;5010036;28;20186;-68
2022/11/18 14:07:26;;;;;;;28.43;15.00;;;;;;;;;;5036931;28;20244;-68
2022/11/18 14:09:54;;;;;;;31.45;15.75;;;;;;;;;;5016158;28;20277;-68
2022/11/18 14:12:23;;;;;;;29.43;15.17;;;;;;;;;;5027332;28;20694;-68
2022/11/18 14:14:49;;;;;;;27.63;14.60;;;;;;;;;;5020655;28;20193;-68
2022/11/18 14:17:18;;;;;;;29.60;15.80;;;;;;;;;;5026963;28;20650;-68
2022/11/18 14:19:44;;;;;;;26.63;15.23;;;;;;;;;;5019803;28;20182;-68
2022/11/18 14:22:17;;;;;;;26.37;15.37;;;;;;;;;;5028478;28;20181;-68
2022/11/18 14:24:43;;;;;;;29.03;15.00;;;;;;;;;;5023358;28;20268;-69
2022/11/18 14:27:41;;;;;;;33.22;16.48;;;;;;;;;;5026982;28;20178;-69
2022/11/18 14:30:25;;;;;;;31.00;16.57;;;;;;;;;;5018067;28;20191;-68
2022/11/18 14:33:19;;;;;;;28.50;16.33;;;;;;;;;;5025547;28;20284;-66
2022/11/18 14:35:59;;;;;;;27.63;15.97;;;;;;;;;;5025091;28;20245;-66
2022/11/18 14:38:41;;;;;;;29.77;16.30;;;;;;;;;;5014003;28;20202;-66
2022/11/18 14:41:10;;;;;;;29.98;16.00;;;;;;;;;;5026343;28;20202;-66
2022/11/18 14:43:36;;;;;;;27.17;14.57;;;;;;;;;;5013284;28;20217;-66
2022/11/18 14:46:04;;;;;;;26.33;15.33;;;;;;;;;;5023077;28;20630;-67
2022/11/18 14:48:31;;;;;;;28.35;17.02;;;;;;;;;;5010926;28;20190;-67
2022/11/18 14:50:57;;;;;;;28.00;14.80;;;;;;;;;;5024040;28;20210;-66
2022/11/18 14:53:22;;;;;;;28.37;14.80;;;;;;;;;;5017926;28;20523;-66
2022/11/18 14:55:50;;;;;;;26.87;15.67;;;;;;;;;;5026610;28;20190;-67
2022/11/18 14:58:15;;;;;;;30.50;16.03;;;;;;;;;;5028220;28;20213;-67
2022/11/18 15:00:42;;;;;;;32.77;15.23;;;;;;;;;;5025794;28;20657;-67
2022/11/18 15:03:07;;;;;;;27.47;15.10;;;;;;;;;;5022538;28;20183;-67
2022/11/18 15:05:33;;;;;;;30.17;15.30;;;;;;;;;;5008541;28;20201;-67
2022/11/18 15:07:58;;;;;;;24.90;14.23;;;;;;;;;;5039027;28;20178;-67
2022/11/18 15:10:24;;;;;;;27.47;14.77;;;;;;;;;;5026539;28;20185;-67
2022/11/18 15:12:49;;;;;;;27.80;15.23;;;;;;;;;;5011375;28;20277;-67